createdAt,value
2023-08-29T00:01:00.275Z,12.76
2023-08-29T00:03:28.973Z,12.79
2023-08-29T00:06:03.015Z,11.44
2023-08-29T00:08:30.955Z,12.41
2023-08-29T00:10:59.007Z,12.19
2023-08-29T00:13:27.188Z,12.07
2023-08-29T00:15:57.219Z,12.59
2023-08-29T00:18:25.075Z,12.47
2023-08-29T00:20:53.023Z,12.55
2023-08-29T00:23:20.778Z,12.44
2023-08-29T00:25:48.574Z,12.42
2023-08-29T00:28:16.349Z,12.32
2023-08-29T00:30:45.406Z,11.97
2023-08-29T00:33:14.771Z,12.14
2023-08-29T00:35:42.940Z,12.24
2023-08-29T00:38:12.135Z,12.44
2023-08-29T00:40:40.142Z,12.33
2023-08-29T00:43:08.017Z,12.39
2023-08-29T00:45:38.180Z,12.29
2023-08-29T00:48:08.633Z,12.22
2023-08-29T00:50:38.270Z,10.76
2023-08-29T00:53:07.713Z,12.14
2023-08-29T00:55:36.957Z,11.40
2023-08-29T00:58:05.811Z,12.09
2023-08-29T01:00:34.798Z,12.11
2023-08-29T01:03:02.831Z,12.18
2023-08-29T01:05:30.650Z,12.03
2023-08-29T01:08:02.319Z,11.99
2023-08-29T01:10:36.762Z,12.00
2023-08-29T01:13:12.242Z,11.82
2023-08-29T01:15:44.353Z,11.88
2023-08-29T01:18:15.144Z,11.88
2023-08-29T01:20:44.570Z,11.86
2023-08-29T01:23:21.597Z,11.70
2023-08-29T01:25:53.840Z,10.50
2023-08-29T01:28:23.231Z,11.68
2023-08-29T01:30:51.926Z,11.63
2023-08-29T01:33:20.013Z,11.71
2023-08-29T01:35:48.611Z,11.09
2023-08-29T01:38:18.441Z,11.63
2023-08-29T01:40:46.578Z,11.60
2023-08-29T01:43:14.445Z,11.65
2023-08-29T01:45:43.698Z,11.59
2023-08-29T01:48:13.115Z,11.53
2023-08-29T01:50:42.846Z,11.56
2023-08-29T01:53:11.075Z,11.18
2023-08-29T01:55:40.879Z,11.51
2023-08-29T01:58:10.193Z,11.56
2023-08-29T02:00:38.298Z,11.26
2023-08-29T02:03:07.545Z,11.28
2023-08-29T02:05:36.276Z,11.46
2023-08-29T02:08:04.230Z,11.49
2023-08-29T02:10:32.334Z,11.57
2023-08-29T02:13:00.046Z,11.48
2023-08-29T02:15:27.805Z,11.43
2023-08-29T02:17:55.750Z,11.44
2023-08-29T02:20:24.847Z,11.48
2023-08-29T02:22:52.658Z,11.46
2023-08-29T02:25:20.378Z,11.43
2023-08-29T02:27:48.638Z,11.47
2023-08-29T02:30:16.368Z,11.39
2023-08-29T02:32:44.110Z,11.35
2023-08-29T02:35:12.263Z,11.24
2023-08-29T02:37:41.763Z,11.36
2023-08-29T02:40:10.376Z,11.31
2023-08-29T02:42:38.617Z,11.01
2023-08-29T02:45:07.197Z,11.40
2023-08-29T02:47:34.955Z,11.31
2023-08-29T02:50:04.460Z,11.38
2023-08-29T02:52:32.126Z,11.38
2023-08-29T02:55:01.277Z,11.45
2023-08-29T02:57:28.933Z,11.44
2023-08-29T02:59:56.746Z,11.44
2023-08-29T03:02:24.585Z,11.27
2023-08-29T03:04:52.300Z,11.18
2023-08-29T03:07:20.080Z,11.26
2023-08-29T03:09:47.791Z,11.21
2023-08-29T03:12:16.891Z,9.77
2023-08-29T03:14:44.570Z,11.22
2023-08-29T03:17:12.488Z,11.16
2023-08-29T03:19:40.107Z,11.26
2023-08-29T03:22:07.755Z,11.25
2023-08-29T03:24:35.458Z,11.20
2023-08-29T03:27:04.060Z,11.19
2023-08-29T03:29:33.185Z,11.10
2023-08-29T03:32:00.857Z,11.10
2023-08-29T03:34:28.598Z,11.14
2023-08-29T03:36:56.289Z,11.15
2023-08-29T03:39:23.994Z,11.13
2023-08-29T03:41:51.679Z,11.12
2023-08-29T03:44:19.436Z,11.12
2023-08-29T03:46:48.488Z,11.15
2023-08-29T03:49:16.219Z,11.08
2023-08-29T03:51:44.075Z,11.25
2023-08-29T03:54:11.722Z,11.10
2023-08-29T03:56:40.818Z,11.05
2023-08-29T03:59:08.867Z,11.06
2023-08-29T04:01:36.509Z,11.05
2023-08-29T04:04:06.093Z,10.94
2023-08-29T04:06:36.062Z,10.97
2023-08-29T04:09:04.747Z,11.06
2023-08-29T04:11:32.493Z,11.02
2023-08-29T04:14:00.258Z,10.91
2023-08-29T04:16:28.049Z,10.96
2023-08-29T04:18:56.112Z,10.96
2023-08-29T04:21:25.957Z,10.98
2023-08-29T04:23:53.600Z,10.95
2023-08-29T04:26:22.488Z,10.91
2023-08-29T04:28:50.354Z,10.21
2023-08-29T04:31:18.665Z,10.34
2023-08-29T04:33:46.389Z,10.84
2023-08-29T04:36:17.743Z,10.89
2023-08-29T04:38:48.689Z,10.94
2023-08-29T04:41:16.535Z,10.91
2023-08-29T04:43:44.393Z,10.91
2023-08-29T04:46:12.093Z,10.92
2023-08-29T04:48:39.835Z,10.89
2023-08-29T04:51:07.554Z,10.80
2023-08-29T04:53:35.491Z,10.82
2023-08-29T04:56:06.247Z,10.45
2023-08-29T04:58:34.102Z,10.02
2023-08-29T05:01:02.091Z,10.85
2023-08-29T05:03:29.833Z,10.93
2023-08-29T05:05:58.809Z,10.92
2023-08-29T05:08:26.586Z,10.90
2023-08-29T05:10:54.260Z,10.91
2023-08-29T05:13:23.341Z,11.01
2023-08-29T05:15:51.061Z,11.04
2023-08-29T05:18:18.852Z,11.24
2023-08-29T05:20:46.605Z,11.43
2023-08-29T05:23:14.236Z,11.44
2023-08-29T05:25:42.574Z,11.45
2023-08-29T05:28:11.671Z,11.47
2023-08-29T05:30:40.785Z,11.61
2023-08-29T05:33:08.528Z,11.64
2023-08-29T05:35:36.275Z,11.62
2023-08-29T05:38:04.359Z,11.67
2023-08-29T05:40:34.219Z,11.71
2023-08-29T05:43:02.253Z,11.75
2023-08-29T05:45:29.908Z,11.87
2023-08-29T05:47:59.040Z,11.89
2023-08-29T05:50:26.815Z,11.93
2023-08-29T05:52:54.501Z,12.08
2023-08-29T05:55:22.210Z,12.20
2023-08-29T05:57:49.872Z,12.26
2023-08-29T06:00:20.421Z,12.32
2023-08-29T06:02:49.090Z,12.43
2023-08-29T06:05:18.533Z,12.45
2023-08-29T06:07:47.485Z,12.53
2023-08-29T06:10:15.211Z,12.59
2023-08-29T06:12:42.929Z,12.64
2023-08-29T06:15:11.178Z,12.33
2023-08-29T06:17:38.993Z,12.79
2023-08-29T06:20:08.388Z,12.85
2023-08-29T06:22:37.362Z,12.91
2023-08-29T06:25:06.082Z,13.00
2023-08-29T06:27:35.112Z,13.06
2023-08-29T06:30:03.596Z,13.14
2023-08-29T06:32:31.656Z,12.91
2023-08-29T06:34:59.468Z,13.29
2023-08-29T06:37:27.180Z,13.35
2023-08-29T06:39:56.378Z,13.40
2023-08-29T06:42:24.025Z,13.49
2023-08-29T06:44:51.650Z,13.57
2023-08-29T06:47:19.743Z,13.68
2023-08-29T06:49:47.646Z,13.76
2023-08-29T06:52:15.363Z,13.83
2023-08-29T06:54:43.122Z,12.59
2023-08-29T06:57:12.580Z,13.83
2023-08-29T06:59:40.962Z,13.92
2023-08-29T07:02:08.848Z,14.01
2023-08-29T07:04:36.625Z,14.10
2023-08-29T07:07:04.457Z,14.10
2023-08-29T07:09:32.247Z,14.07
2023-08-29T07:12:00.101Z,14.12
2023-08-29T07:14:29.151Z,14.35
2023-08-29T07:17:09.292Z,14.26
2023-08-29T07:19:38.121Z,14.40
2023-08-29T07:22:17.461Z,14.50
2023-08-29T07:24:51.741Z,14.47
2023-08-29T07:27:19.581Z,14.60
2023-08-29T07:29:48.666Z,14.65
2023-08-29T07:32:16.454Z,14.67
2023-08-29T07:34:44.152Z,14.73
2023-08-29T07:37:11.897Z,14.76
2023-08-29T07:39:39.559Z,14.43
2023-08-29T07:42:07.335Z,14.79
2023-08-29T07:44:35.082Z,14.82
2023-08-29T07:47:14.951Z,14.86
2023-08-29T07:49:43.998Z,14.91
2023-08-29T07:52:11.832Z,15.06
2023-08-29T07:54:39.522Z,15.15
2023-08-29T07:57:07.318Z,15.17
2023-08-29T07:59:35.028Z,15.17
2023-08-29T08:02:04.243Z,14.61
2023-08-29T08:04:31.984Z,15.21
2023-08-29T08:06:59.672Z,15.31
2023-08-29T08:09:27.810Z,15.13
2023-08-29T08:11:55.510Z,15.31
2023-08-29T08:14:23.201Z,15.41
2023-08-29T08:16:51.037Z,14.88
2023-08-29T08:19:20.083Z,15.57
2023-08-29T08:21:50.182Z,15.55
2023-08-29T08:24:18.918Z,14.74
2023-08-29T08:26:47.099Z,15.69
2023-08-29T08:29:14.946Z,15.80
2023-08-29T08:31:42.684Z,15.87
2023-08-29T08:34:11.463Z,16.00
2023-08-29T08:36:40.593Z,16.14
2023-08-29T08:39:08.369Z,16.16
2023-08-29T08:41:36.107Z,15.85
2023-08-29T08:44:07.606Z,16.48
2023-08-29T08:46:36.295Z,16.65
2023-08-29T08:49:04.371Z,16.78
2023-08-29T08:51:33.671Z,16.59
2023-08-29T08:54:03.027Z,16.75
2023-08-29T08:56:32.387Z,17.13
2023-08-29T08:59:00.983Z,17.11
2023-08-29T09:01:29.366Z,17.08
2023-08-29T09:03:57.315Z,17.34
2023-08-29T09:06:25.135Z,17.42
2023-08-29T09:08:52.850Z,17.56
2023-08-29T09:11:22.138Z,17.63
2023-08-29T09:13:50.856Z,17.62
2023-08-29T09:16:18.806Z,16.68
2023-08-29T09:18:47.183Z,17.29
2023-08-29T09:21:18.400Z,17.74
2023-08-29T09:23:46.517Z,17.93
2023-08-29T09:26:14.868Z,18.04
2023-08-29T09:28:45.091Z,17.91
2023-08-29T09:31:12.986Z,17.94
2023-08-29T09:33:41.345Z,17.85
2023-08-29T09:36:09.320Z,18.05
2023-08-29T09:38:37.565Z,18.06
2023-08-29T09:41:05.699Z,17.75
2023-08-29T09:43:33.570Z,17.11
2023-08-29T09:46:06.328Z,17.11
2023-08-29T09:48:35.971Z,18.17
2023-08-29T09:51:04.691Z,18.08
2023-08-29T09:53:33.287Z,18.28
2023-08-29T09:56:08.350Z,18.39
2023-08-29T09:58:39.652Z,18.12
2023-08-29T10:01:11.017Z,18.63
2023-08-29T10:03:40.914Z,18.79
2023-08-29T10:06:13.236Z,18.66
2023-08-29T10:08:47.270Z,19.08
2023-08-29T10:11:15.200Z,19.26
2023-08-29T10:13:43.824Z,19.12
2023-08-29T10:16:14.577Z,19.59
2023-08-29T10:18:42.633Z,19.39
2023-08-29T10:21:12.101Z,19.44
2023-08-29T10:23:41.194Z,19.28
2023-08-29T10:26:09.355Z,19.61
2023-08-29T10:28:38.546Z,19.35
2023-08-29T10:31:08.300Z,19.17
2023-08-29T10:33:38.834Z,19.25
2023-08-29T10:36:09.887Z,19.94
2023-08-29T10:38:41.116Z,20.07
2023-08-29T10:41:09.142Z,20.14
2023-08-29T10:43:37.391Z,19.70
2023-08-29T10:46:17.655Z,19.77
2023-08-29T10:48:56.750Z,20.24
2023-08-29T10:51:26.351Z,19.61
2023-08-29T10:53:55.404Z,20.10
2023-08-29T10:56:28.846Z,20.46
2023-08-29T10:58:57.356Z,20.65
2023-08-29T11:01:33.115Z,20.48
2023-08-29T11:04:04.980Z,20.51
2023-08-29T11:06:54.588Z,20.63
2023-08-29T11:09:23.621Z,20.77
2023-08-29T11:12:10.733Z,20.91
2023-08-29T11:14:51.011Z,21.04
2023-08-29T11:17:24.285Z,20.65
2023-08-29T11:19:58.020Z,20.48
2023-08-29T11:22:29.393Z,20.66
2023-08-29T11:24:58.377Z,20.69
2023-08-29T11:27:27.650Z,20.82
2023-08-29T11:30:10.087Z,21.04
2023-08-29T11:32:43.507Z,20.60
2023-08-29T11:35:13.355Z,20.40
2023-08-29T11:37:41.488Z,20.47
2023-08-29T11:40:16.932Z,20.78
2023-08-29T11:43:24.844Z,20.74
2023-08-29T11:45:46.381Z,21.10
2023-08-29T11:48:23.182Z,21.59
2023-08-29T11:50:55.338Z,21.17
2023-08-29T11:53:24.039Z,21.22
2023-08-29T11:55:52.306Z,21.55
2023-08-29T11:58:20.251Z,21.43
2023-08-29T12:00:51.030Z,21.34
2023-08-29T12:03:21.906Z,21.83
2023-08-29T12:05:50.049Z,21.61
2023-08-29T12:08:34.475Z,21.30
2023-08-29T12:11:02.281Z,21.56
2023-08-29T12:13:29.958Z,21.52
2023-08-29T12:15:59.367Z,21.70
2023-08-29T12:18:28.011Z,22.05
2023-08-29T12:21:13.787Z,22.27
2023-08-29T12:23:44.250Z,21.99
2023-08-29T12:26:12.959Z,22.40
2023-08-29T12:28:40.956Z,22.41
2023-08-29T12:31:09.264Z,22.63
2023-08-29T12:33:37.054Z,22.82
2023-08-29T12:36:05.777Z,22.73
2023-08-29T12:38:33.505Z,22.64
2023-08-29T12:41:02.584Z,22.74
2023-08-29T12:43:30.254Z,22.50
2023-08-29T12:46:00.368Z,22.15
2023-08-29T12:48:28.546Z,22.14
2023-08-29T12:50:56.270Z,22.54
2023-08-29T12:53:23.942Z,22.71
2023-08-29T12:55:52.331Z,22.85
2023-08-29T12:58:21.372Z,22.52
2023-08-29T13:00:49.301Z,22.76
2023-08-29T13:03:17.036Z,22.87
2023-08-29T13:05:44.952Z,22.90
2023-08-29T13:08:12.750Z,22.51
2023-08-29T13:10:40.549Z,22.38
2023-08-29T13:13:08.257Z,22.34
2023-08-29T13:15:49.844Z,21.84
2023-08-29T13:18:18.595Z,22.93
2023-08-29T13:20:46.596Z,23.30
2023-08-29T13:23:14.291Z,23.71
2023-08-29T13:25:42.082Z,23.57
2023-08-29T13:28:10.131Z,22.99
2023-08-29T13:30:39.915Z,23.07
2023-08-29T13:33:09.117Z,23.15
2023-08-29T13:35:36.900Z,23.12
2023-08-29T13:38:05.241Z,23.32
2023-08-29T13:40:33.780Z,22.84
2023-08-29T13:43:01.486Z,22.84
2023-08-29T13:45:29.201Z,22.86
2023-08-29T13:47:58.315Z,22.73
2023-08-29T13:50:26.050Z,22.69
2023-08-29T13:52:53.736Z,22.38
2023-08-29T13:55:21.413Z,22.64
2023-08-29T13:57:49.130Z,23.08
2023-08-29T14:00:18.011Z,23.49
2023-08-29T14:02:48.154Z,23.62
2023-08-29T14:05:17.441Z,23.42
2023-08-29T14:07:45.388Z,23.26
2023-08-29T14:10:13.052Z,22.78
2023-08-29T14:12:40.914Z,22.79
2023-08-29T14:15:10.270Z,22.52
2023-08-29T14:17:38.110Z,22.41
2023-08-29T14:20:06.985Z,22.13
2023-08-29T14:22:35.987Z,22.06
2023-08-29T14:25:03.672Z,22.02
2023-08-29T14:27:31.360Z,22.05
2023-08-29T14:29:59.071Z,22.03
2023-08-29T14:32:27.230Z,22.04
2023-08-29T14:34:54.932Z,21.88
2023-08-29T14:37:23.269Z,21.68
2023-08-29T14:39:52.302Z,21.80
2023-08-29T14:42:20.041Z,21.79
2023-08-29T14:44:47.698Z,21.57
2023-08-29T14:47:15.436Z,21.60
2023-08-29T14:49:43.095Z,21.58
2023-08-29T14:52:10.776Z,21.78
2023-08-29T14:54:38.443Z,21.64
2023-08-29T14:57:08.613Z,21.83
2023-08-29T14:59:36.655Z,21.86
2023-08-29T15:02:05.408Z,22.08
2023-08-29T15:04:33.066Z,21.72
2023-08-29T15:07:02.288Z,21.99
2023-08-29T15:09:30.030Z,22.00
2023-08-29T15:11:57.778Z,22.10
2023-08-29T15:14:26.829Z,22.08
2023-08-29T15:16:54.492Z,22.08
2023-08-29T15:19:22.201Z,22.25
2023-08-29T15:21:49.875Z,21.99
2023-08-29T15:24:17.495Z,21.93
2023-08-29T15:26:48.579Z,22.14
2023-08-29T15:29:18.418Z,21.54
2023-08-29T15:31:47.532Z,21.53
2023-08-29T15:34:15.453Z,21.74
2023-08-29T15:36:43.116Z,21.58
2023-08-29T15:39:10.778Z,21.37
2023-08-29T15:41:38.426Z,21.54
2023-08-29T15:44:06.290Z,21.32
2023-08-29T15:46:34.012Z,21.60
2023-08-29T15:49:04.884Z,21.85
2023-08-29T15:51:32.808Z,21.83
2023-08-29T15:54:00.512Z,21.50
2023-08-29T15:56:28.184Z,21.62
2023-08-29T15:58:55.861Z,21.05
2023-08-29T16:01:24.050Z,21.56
2023-08-29T16:03:52.261Z,21.14
2023-08-29T16:06:21.707Z,21.33
2023-08-29T16:08:49.387Z,21.38
2023-08-29T16:11:17.237Z,21.46
2023-08-29T16:13:44.957Z,21.49
2023-08-29T16:16:12.698Z,21.51
2023-08-29T16:18:40.380Z,21.51
2023-08-29T16:21:08.062Z,21.34
2023-08-29T16:23:37.118Z,21.27
2023-08-29T16:26:13.819Z,21.17
2023-08-29T16:28:41.640Z,21.16
2023-08-29T16:31:09.341Z,21.15
2023-08-29T16:33:37.103Z,21.19
2023-08-29T16:36:05.939Z,21.16
2023-08-29T16:38:33.904Z,21.03
2023-08-29T16:41:02.940Z,21.00
2023-08-29T16:43:30.590Z,20.90
2023-08-29T16:45:58.437Z,20.71
2023-08-29T16:48:26.151Z,20.31
2023-08-29T16:50:53.864Z,20.59
2023-08-29T16:53:21.691Z,20.61
2023-08-29T16:55:51.048Z,20.39
2023-08-29T16:58:20.071Z,20.48
2023-08-29T17:00:48.296Z,20.34
2023-08-29T17:03:16.120Z,20.29
2023-08-29T17:05:43.895Z,20.28
2023-08-29T17:08:13.072Z,20.21
2023-08-29T17:10:40.782Z,20.33
2023-08-29T17:13:09.919Z,20.31
2023-08-29T17:15:38.944Z,20.25
2023-08-29T17:18:06.946Z,20.11
2023-08-29T17:20:34.913Z,20.15
2023-08-29T17:23:02.547Z,20.13
2023-08-29T17:25:30.921Z,19.96
2023-08-29T17:27:59.530Z,20.11
2023-08-29T17:30:27.629Z,20.03
2023-08-29T17:32:56.702Z,19.97
2023-08-29T17:35:24.487Z,19.90
2023-08-29T17:37:52.228Z,19.85
2023-08-29T17:40:20.026Z,19.73
2023-08-29T17:42:47.732Z,19.68
2023-08-29T17:45:16.934Z,19.51
2023-08-29T17:47:44.628Z,19.17
2023-08-29T17:50:14.544Z,19.14
2023-08-29T17:52:43.215Z,19.00
2023-08-29T17:55:10.876Z,18.69
2023-08-29T17:57:39.473Z,18.67
2023-08-29T18:00:08.361Z,18.35
2023-08-29T18:02:36.099Z,18.07
2023-08-29T18:05:03.893Z,18.04
2023-08-29T18:07:32.906Z,17.87
2023-08-29T18:10:09.073Z,17.62
2023-08-29T18:12:38.015Z,17.60
2023-08-29T18:15:06.902Z,17.48
2023-08-29T18:17:34.714Z,17.33
2023-08-29T18:20:02.557Z,17.20
2023-08-29T18:22:31.476Z,17.14
2023-08-29T18:25:00.580Z,16.90
2023-08-29T18:27:28.248Z,16.91
2023-08-29T18:29:55.893Z,16.70
2023-08-29T18:32:24.203Z,16.65
2023-08-29T18:34:53.815Z,16.48
2023-08-29T18:37:21.623Z,16.55
2023-08-29T18:39:49.372Z,16.34
2023-08-29T18:42:18.372Z,16.33
2023-08-29T18:44:46.037Z,16.27
2023-08-29T18:47:13.712Z,16.27
2023-08-29T18:49:41.582Z,16.07
2023-08-29T18:52:09.292Z,16.06
2023-08-29T18:54:36.989Z,16.02
2023-08-29T18:57:05.300Z,15.86
2023-08-29T19:02:04.084Z,15.44
2023-08-29T19:04:32.402Z,14.03
2023-08-29T19:07:00.941Z,15.37
2023-08-29T19:09:28.924Z,15.19
2023-08-29T19:11:57.239Z,15.89
2023-08-29T19:14:27.070Z,15.87
2023-08-29T19:17:02.071Z,14.35
2023-08-29T19:19:30.717Z,15.78
2023-08-29T19:21:58.892Z,14.58
2023-08-29T19:24:26.920Z,15.49
2023-08-29T19:26:55.064Z,15.56
2023-08-29T19:29:23.655Z,14.94
2023-08-29T19:31:51.890Z,14.44
2023-08-29T19:34:21.491Z,14.71
2023-08-29T19:36:49.889Z,14.83
2023-08-29T19:39:18.729Z,14.98
2023-08-29T19:41:46.756Z,15.84
2023-08-29T19:44:17.279Z,15.70
2023-08-29T19:46:45.390Z,15.59
2023-08-29T19:49:13.560Z,15.59
2023-08-29T19:51:43.714Z,15.54
2023-08-29T19:54:11.465Z,15.96
2023-08-29T19:56:39.256Z,15.92
2023-08-29T19:59:07.742Z,15.96
2023-08-29T20:01:35.462Z,16.05
2023-08-29T20:04:04.075Z,16.01
2023-08-29T20:06:31.833Z,16.10
2023-08-29T20:09:01.542Z,15.98
2023-08-29T20:11:29.676Z,15.55
2023-08-29T20:13:58.085Z,15.75
2023-08-29T20:16:26.616Z,16.11
2023-08-29T20:18:55.556Z,14.58
2023-08-29T20:21:23.713Z,16.11
2023-08-29T20:24:01.999Z,15.53
2023-08-29T20:26:32.307Z,16.27
2023-08-29T20:29:01.156Z,16.25
2023-08-29T20:31:28.983Z,16.25
2023-08-29T20:33:56.760Z,16.33
2023-08-29T20:36:24.445Z,16.32
2023-08-29T20:38:52.284Z,16.30
2023-08-29T20:41:19.997Z,16.33
2023-08-29T20:43:49.114Z,16.21
2023-08-29T20:46:16.842Z,16.30
2023-08-29T20:48:46.965Z,16.35
2023-08-29T20:51:14.747Z,16.17
2023-08-29T20:53:42.494Z,16.16
2023-08-29T20:56:10.287Z,16.15
2023-08-29T20:58:38.306Z,16.15
2023-08-29T21:01:07.463Z,16.11
2023-08-29T21:03:35.463Z,15.98
2023-08-29T21:06:03.225Z,15.91
2023-08-29T21:08:31.422Z,15.95
2023-08-29T21:10:59.149Z,16.02
2023-08-29T21:13:26.910Z,15.98
2023-08-29T21:15:54.647Z,15.99
2023-08-29T21:18:23.751Z,15.84
2023-08-29T21:20:53.129Z,15.72
2023-08-29T21:23:20.957Z,15.88
2023-08-29T21:25:49.422Z,15.80
2023-08-29T21:28:17.768Z,15.92
2023-08-29T21:30:46.096Z,15.87
2023-08-29T21:33:14.536Z,15.77
2023-08-29T21:35:45.056Z,15.77
2023-08-29T21:38:13.543Z,15.77
2023-08-29T21:40:43.088Z,15.76
2023-08-29T21:43:12.856Z,15.75
2023-08-29T21:45:41.237Z,15.80
2023-08-29T21:48:11.560Z,15.82
2023-08-29T21:50:39.955Z,15.77
2023-08-29T21:53:10.098Z,15.78
2023-08-29T21:55:38.898Z,15.82
2023-08-29T21:58:07.829Z,15.46
2023-08-29T22:00:36.181Z,15.87
2023-08-29T22:03:04.908Z,15.76
2023-08-29T22:05:33.986Z,15.66
2023-08-29T22:08:01.886Z,15.68
2023-08-29T22:10:32.274Z,15.68
2023-08-29T22:13:00.959Z,15.73
2023-08-29T22:15:28.705Z,15.55
2023-08-29T22:17:56.430Z,15.71
2023-08-29T22:20:24.288Z,15.67
2023-08-29T22:22:53.289Z,15.65
2023-08-29T22:25:21.194Z,15.60
2023-08-29T22:27:50.322Z,15.62
2023-08-29T22:30:18.564Z,15.55
2023-08-29T22:32:46.257Z,15.47
2023-08-29T22:35:14.004Z,15.58
2023-08-29T22:37:41.655Z,15.44
2023-08-29T22:40:10.863Z,15.51
2023-08-29T22:42:38.563Z,15.52
2023-08-29T22:45:08.597Z,15.44
2023-08-29T22:47:36.370Z,15.56
2023-08-29T22:50:04.161Z,15.47
2023-08-29T22:52:31.866Z,15.60
2023-08-29T22:54:59.620Z,15.57
2023-08-29T22:57:27.427Z,15.65
2023-08-29T22:59:55.099Z,15.67
2023-08-29T23:02:24.981Z,15.69
2023-08-29T23:04:52.754Z,15.69
2023-08-29T23:07:22.989Z,15.78
2023-08-29T23:09:50.927Z,15.71
2023-08-29T23:12:18.685Z,15.64
2023-08-29T23:14:46.337Z,15.62
2023-08-29T23:17:14.027Z,15.55
2023-08-29T23:19:45.149Z,15.60
2023-08-29T23:22:13.144Z,15.65
2023-08-29T23:24:40.947Z,15.47
2023-08-29T23:27:08.699Z,15.49
2023-08-29T23:29:37.204Z,15.37
2023-08-29T23:32:05.846Z,15.26
2023-08-29T23:34:33.789Z,15.22
2023-08-29T23:37:02.886Z,15.19
2023-08-29T23:39:30.572Z,15.01
2023-08-29T23:42:00.508Z,14.78
2023-08-29T23:44:28.276Z,14.47
2023-08-29T23:46:57.262Z,14.82
2023-08-29T23:49:25.054Z,14.68
2023-08-29T23:51:52.732Z,14.51
2023-08-29T23:54:21.820Z,14.47
2023-08-29T23:56:49.495Z,14.43
2023-08-29T23:59:17.325Z,14.30
